»·PEaware :: WAT2019 KDEN-KELP

WAT2019 :: KDEN-KELP

FLIGHT INFORMATION

Flight Status: Arrived
Operator:
Walker Air Transport
More flights by this operator :: More flights under this callsign
Pilot: Bogdan R. (37247)
Aircraft: BOEING 737-800
(B738)
More flights by this aircraft type
Origin: KDEN Denver Intl
United States
Destination: KELP El Paso Intl
United States
More flights between these airports :: More routes between these airports
Route: SUDDZ1 SUDDZ SLNNK WAZKO1
File this flight plan on PilotEdge
Remarks: RMK / SIMBRIEF
Altitude:
(Current/Filed)
38,000ft
Speed:
(Current/Filed)
439kts
Departed: 26-Sep-22 07:16 PM
Arrived: 26-Sep-22 08:40 PM
Distance/Time
Traveled:
491nm/1:24
Distance/Time
To Go:
Arrived

Flight Plot

Page will automatically refresh every two minutes.

Flight plan parsing failed; only flown route is shown


Map Options




Map Legend


Flown Route
Filed Route
Departure Airport
Arrival Airport
Navaid (VOR, NDB)
Fix

Horizontal Profiles

Position Reports

Time Latitude Longitude Heading Altitude Ground
Speed
26-Sep-22 18:31 39.854478 -104.676722 207 5365ft 0kts
26-Sep-22 18:32 39.854478 -104.676722 207 5365ft 0kts
26-Sep-22 18:33 39.854478 -104.676722 207 5365ft 0kts
26-Sep-22 18:34 39.854478 -104.676722 207 5365ft 0kts
26-Sep-22 18:35 39.854478 -104.676722 207 5365ft 0kts
26-Sep-22 18:36 39.854478 -104.676722 207 5365ft 0kts
26-Sep-22 18:37 39.854478 -104.676722 207 5365ft 0kts
26-Sep-22 18:38 39.854478 -104.676722 207 5365ft 0kts
26-Sep-22 18:39 39.854478 -104.676722 207 5365ft 0kts
26-Sep-22 18:40 39.854478 -104.676722 207 5365ft 0kts
26-Sep-22 18:41 39.854478 -104.676722 207 5365ft 0kts
26-Sep-22 18:42 39.854478 -104.676722 207 5365ft 0kts
26-Sep-22 18:44 39.854478 -104.676722 207 5365ft 0kts
26-Sep-22 18:45 39.854478 -104.676722 207 5365ft 0kts
26-Sep-22 18:46 39.854478 -104.676722 207 5365ft 0kts
26-Sep-22 18:47 39.854478 -104.676722 207 5365ft 0kts
26-Sep-22 18:48 39.854478 -104.676722 207 5365ft 0kts
26-Sep-22 18:49 39.854478 -104.676722 207 5365ft 0kts
26-Sep-22 18:50 39.854478 -104.676722 207 5365ft 0kts
26-Sep-22 18:51 39.854478 -104.676722 207 5365ft 0kts
26-Sep-22 18:52 39.854478 -104.676722 207 5365ft 0kts
26-Sep-22 18:53 39.854478 -104.676722 207 5365ft 0kts
26-Sep-22 18:54 39.854478 -104.676722 207 5365ft 0kts
26-Sep-22 18:55 39.854478 -104.676722 207 5365ft 0kts
26-Sep-22 18:56 39.854478 -104.676722 207 5365ft 0kts
26-Sep-22 18:57 39.854478 -104.676722 207 5365ft 0kts
26-Sep-22 18:58 39.854478 -104.676722 207 5365ft 0kts
26-Sep-22 18:59 39.854478 -104.676722 207 5365ft 0kts
26-Sep-22 19:00 39.854478 -104.676722 207 5365ft 0kts
26-Sep-22 19:01 39.854478 -104.676722 207 5365ft 0kts
26-Sep-22 19:02 39.854478 -104.676722 207 5365ft 0kts
26-Sep-22 19:03 39.854478 -104.676722 207 5365ft 0kts
26-Sep-22 19:04 39.854632 -104.676617 207 5361ft 2kts
26-Sep-22 19:05 39.855079 -104.676315 207 5363ft 0kts
26-Sep-22 19:06 39.855079 -104.676315 207 5363ft 0kts
26-Sep-22 19:07 39.855079 -104.676315 207 5363ft 0kts
26-Sep-22 19:08 39.855078 -104.676315 207 5363ft 0kts
26-Sep-22 19:08 39.855610 -104.677746 327 5361ft 12kts
26-Sep-22 19:10 39.855973 -104.682788 270 5364ft 8kts
26-Sep-22 19:11 39.853224 -104.683998 181 5365ft 24kts
26-Sep-22 19:12 39.847051 -104.684073 181 5363ft 20kts
26-Sep-22 19:12 39.842594 -104.684136 181 5364ft 12kts
26-Sep-22 19:14 39.841844 -104.684152 180 5363ft 0kts
26-Sep-22 19:15 39.841428 -104.684156 180 5364ft 12kts
26-Sep-22 19:15 39.840635 -104.687354 270 5363ft 72kts
26-Sep-22 19:16 39.837624 -104.751179 238 7581ft 213kts
26-Sep-22 19:17 39.804247 -104.824029 244 9839ft 270kts
26-Sep-22 19:18 39.756586 -104.911163 199 10202ft 341kts
26-Sep-22 19:20 39.646580 -104.911825 168 14223ft 358kts
26-Sep-22 19:20 39.569935 -104.866894 151 16806ft 370kts
26-Sep-22 19:21 39.473806 -104.818489 182 19649ft 382kts
26-Sep-22 19:22 39.365637 -104.826439 183 22188ft 395kts
26-Sep-22 19:23 39.254230 -104.833328 182 24541ft 405kts
26-Sep-22 19:24 39.140599 -104.840467 183 26598ft 415kts
26-Sep-22 19:25 39.027989 -104.874795 197 28546ft 422kts
26-Sep-22 19:26 38.914548 -104.919069 196 30354ft 430kts
26-Sep-22 19:27 38.798702 -104.963910 196 31600ft 440kts
26-Sep-22 19:28 38.681706 -105.008981 196 33295ft 437kts
26-Sep-22 19:29 38.565079 -105.053693 196 34689ft 438kts
26-Sep-22 19:30 38.447969 -105.098468 197 35776ft 441kts
26-Sep-22 19:31 38.330339 -105.143272 197 36860ft 442kts
26-Sep-22 19:32 38.212153 -105.188140 198 37933ft 443kts
26-Sep-22 19:33 38.093121 -105.233184 198 38279ft 448kts
26-Sep-22 19:34 37.974539 -105.277893 198 38289ft 445kts
26-Sep-22 19:35 37.856294 -105.324430 202 38288ft 444kts
26-Sep-22 19:36 37.740335 -105.378858 202 38276ft 444kts
26-Sep-22 19:37 37.623956 -105.432647 202 38275ft 445kts
26-Sep-22 19:38 37.507543 -105.485886 202 38303ft 446kts
26-Sep-22 19:39 37.390906 -105.539047 202 38334ft 446kts
26-Sep-22 19:40 37.274202 -105.592063 202 38332ft 446kts
26-Sep-22 19:41 37.157318 -105.644991 202 38300ft 447kts
26-Sep-22 19:42 37.040138 -105.697872 203 38291ft 448kts
26-Sep-22 19:43 36.922958 -105.750580 203 38298ft 448kts
26-Sep-22 19:44 36.805555 -105.803216 203 38309ft 448kts
26-Sep-22 19:45 36.688413 -105.855569 203 38353ft 449kts
26-Sep-22 19:46 36.570690 -105.908004 203 38383ft 448kts
26-Sep-22 19:47 36.452988 -105.960257 203 38365ft 448kts
26-Sep-22 19:48 36.335584 -106.012222 203 38307ft 447kts
26-Sep-22 19:49 36.218325 -106.063949 203 38250ft 448kts
26-Sep-22 19:50 36.101167 -106.115475 203 38312ft 447kts
26-Sep-22 19:51 35.983900 -106.166870 203 38404ft 446kts
26-Sep-22 19:52 35.867084 -106.217920 203 38442ft 445kts
26-Sep-22 19:53 35.750152 -106.268856 203 38403ft 445kts
26-Sep-22 19:54 35.633513 -106.319514 203 38301ft 445kts
26-Sep-22 19:55 35.516996 -106.369947 202 38246ft 443kts
26-Sep-22 19:56 35.400543 -106.420211 202 38156ft 443kts
26-Sep-22 19:57 35.284485 -106.470144 202 38202ft 442kts
26-Sep-22 19:58 35.168548 -106.519882 202 38288ft 442kts
26-Sep-22 19:59 35.052585 -106.569473 202 38331ft 442kts
26-Sep-22 20:00 34.936714 -106.618875 202 38321ft 441kts
26-Sep-22 20:01 34.820802 -106.668150 202 38228ft 441kts
26-Sep-22 20:02 34.704627 -106.717390 201 38147ft 442kts
26-Sep-22 20:03 34.588647 -106.766397 201 38137ft 441kts
26-Sep-22 20:04 34.472866 -106.815178 201 38138ft 441kts
26-Sep-22 20:05 34.356819 -106.863928 201 38159ft 441kts
26-Sep-22 20:06 34.241087 -106.912406 201 38239ft 441kts
26-Sep-22 20:07 34.124954 -106.960905 201 38313ft 440kts
26-Sep-22 20:08 34.009299 -107.009072 200 38330ft 440kts
26-Sep-22 20:09 33.893517 -107.057147 200 38270ft 441kts
26-Sep-22 20:10 33.777624 -107.105130 200 38197ft 440kts
26-Sep-22 20:11 33.662863 -107.152500 200 36729ft 431kts
26-Sep-22 20:12 33.550212 -107.198888 200 34972ft 424kts
26-Sep-22 20:13 33.439161 -107.244492 200 33318ft 417kts
26-Sep-22 20:14 33.331250 -107.288672 199 32121ft 398kts
26-Sep-22 20:15 33.223697 -107.316149 191 30678ft 391kts
26-Sep-22 20:16 33.118092 -107.341246 192 29064ft 382kts
26-Sep-22 20:17 33.015359 -107.366171 192 27495ft 372kts
26-Sep-22 20:18 32.918901 -107.350652 144 25828ft 367kts
26-Sep-22 20:19 32.831491 -107.271199 141 22583ft 401kts
26-Sep-22 20:20 32.744430 -107.193296 142 20685ft 386kts
26-Sep-22 20:21 32.660373 -107.118664 142 19207ft 364kts
26-Sep-22 20:22 32.578059 -107.045669 142 19263ft 384kts
26-Sep-22 20:23 32.493259 -106.973168 144 18374ft 367kts
26-Sep-22 20:24 32.412014 -106.905744 143 17143ft 340kts
26-Sep-22 20:25 32.333299 -106.840246 142 14772ft 354kts
26-Sep-22 20:26 32.252536 -106.773206 142 12870ft 341kts
26-Sep-22 20:27 32.178522 -106.711865 142 11822ft 311kts
26-Sep-22 20:28 32.110147 -106.658068 154 11216ft 279kts
26-Sep-22 20:29 32.042890 -106.623964 130 10798ft 246kts
26-Sep-22 20:30 32.020777 -106.551185 105 9844ft 234kts
26-Sep-22 20:31 32.001687 -106.478857 119 8884ft 227kts
26-Sep-22 20:32 31.965066 -106.417413 124 8214ft 226kts
26-Sep-22 20:33 31.930836 -106.359546 124 7569ft 198kts
26-Sep-22 20:34 31.902741 -106.311864 124 7000ft 161kts
26-Sep-22 20:35 31.870344 -106.278658 123 6572ft 161kts
26-Sep-22 20:36 31.831075 -106.272641 193 5744ft 169kts
26-Sep-22 20:37 31.797500 -106.305937 270 5018ft 185kts
26-Sep-22 20:38 31.800667 -106.361742 273 3980ft 146kts
26-Sep-22 20:39 31.800773 -106.385024 182 3940ft 8kts
26-Sep-22 20:40 31.800551 -106.385039 183 3940ft 0kts
26-Sep-22 20:41 31.799907 -106.386297 271 3938ft 11kts
26-Sep-22 20:42 31.799892 -106.389965 269 3935ft 10kts
26-Sep-22 20:43 31.799442 -106.392609 251 3933ft 4kts
26-Sep-22 20:44 31.799673 -106.393666 343 3932ft 3kts
26-Sep-22 20:45 31.799774 -106.393718 330 3932ft 0kts
26-Sep-22 20:46 31.799774 -106.393718 330 3932ft 0kts

Navigation Log

Ident Type
Flight plan parsing failed, navigation log unavailable